createdAt,value
2018-05-02T00:00:59.099Z,965.86
2018-05-02T00:01:59.102Z,965.84
2018-05-02T00:02:59.232Z,965.87
2018-05-02T00:03:59.215Z,965.90
2018-05-02T00:04:59.344Z,965.85
2018-05-02T00:05:59.329Z,965.85
2018-05-02T00:06:59.308Z,965.85
2018-05-02T00:07:59.436Z,965.80
2018-05-02T00:08:59.431Z,965.79
2018-05-02T00:09:59.597Z,965.78
2018-05-02T00:10:59.594Z,965.83
2018-05-02T00:11:59.549Z,965.79
2018-05-02T00:12:59.704Z,965.81
2018-05-02T00:13:59.665Z,965.82
2018-05-02T00:14:59.810Z,965.80
2018-05-02T00:15:59.805Z,965.80
2018-05-02T00:16:59.787Z,965.85
2018-05-02T00:17:59.926Z,965.82
2018-05-02T00:18:59.905Z,965.83
2018-05-02T00:20:00.063Z,965.82
2018-05-02T00:20:59.986Z,965.77
2018-05-02T00:22:00.031Z,965.80
2018-05-02T00:23:00.161Z,965.75
2018-05-02T00:24:00.166Z,965.75
2018-05-02T00:25:00.299Z,965.80
2018-05-02T00:26:00.276Z,965.77
2018-05-02T00:27:01.220Z,965.72
2018-05-02T00:28:00.395Z,965.74
2018-05-02T00:29:00.368Z,965.68
2018-05-02T00:30:00.521Z,965.67
2018-05-02T00:31:00.498Z,965.64
2018-05-02T00:32:00.637Z,965.68
2018-05-02T00:33:00.658Z,965.68
2018-05-02T00:34:00.631Z,965.67
2018-05-02T00:35:00.756Z,965.67
2018-05-02T00:36:00.754Z,965.66
2018-05-02T00:37:00.881Z,965.63
2018-05-02T00:38:00.861Z,965.74
2018-05-02T00:39:00.848Z,965.67
2018-05-02T00:40:00.999Z,965.71
2018-05-02T00:41:00.966Z,965.65
2018-05-02T00:42:01.089Z,965.67
2018-05-02T00:43:01.096Z,965.63
2018-05-02T00:44:01.120Z,965.63
2018-05-02T00:45:01.335Z,965.62
2018-05-02T00:46:01.224Z,965.60
2018-05-02T00:47:01.364Z,965.58
2018-05-02T00:48:01.343Z,965.55
2018-05-02T00:49:01.324Z,965.57
2018-05-02T00:50:01.469Z,965.59
2018-05-02T00:51:01.468Z,965.55
2018-05-02T00:52:01.599Z,965.56
2018-05-02T00:53:01.545Z,965.58
2018-05-02T00:54:01.575Z,965.58
2018-05-02T00:55:01.611Z,965.57
2018-05-02T00:56:01.716Z,965.57
2018-05-02T00:57:01.856Z,965.59
2018-05-02T00:58:01.810Z,965.57
2018-05-02T00:59:01.795Z,965.53
2018-05-02T01:00:01.937Z,965.50
2018-05-02T01:01:01.930Z,965.53
2018-05-02T01:02:02.057Z,965.50
2018-05-02T01:03:02.052Z,965.46
2018-05-02T01:04:02.198Z,965.48
2018-05-02T01:05:02.127Z,965.46
2018-05-02T01:06:02.169Z,965.48
2018-05-02T01:07:02.309Z,965.45
2018-05-02T01:08:02.311Z,965.46
2018-05-02T01:09:02.274Z,965.49
2018-05-02T01:10:02.415Z,965.47
2018-05-02T01:11:02.396Z,965.46
2018-05-02T01:12:02.546Z,965.49
2018-05-02T01:13:02.513Z,965.47
2018-05-02T01:14:02.505Z,965.41
2018-05-02T01:15:02.646Z,965.43
2018-05-02T01:16:02.672Z,965.42
2018-05-02T01:17:02.805Z,965.41
2018-05-02T01:18:02.769Z,965.37
2018-05-02T01:19:02.767Z,965.40
2018-05-02T01:20:02.892Z,965.42
2018-05-02T01:21:02.868Z,965.42
2018-05-02T01:22:03.032Z,965.47
2018-05-02T01:23:03.033Z,965.41
2018-05-02T01:24:02.980Z,965.41
2018-05-02T01:25:03.107Z,965.44
2018-05-02T01:26:03.109Z,965.40
2018-05-02T01:27:03.135Z,965.39
2018-05-02T01:28:03.283Z,965.41
2018-05-02T01:29:03.228Z,965.38
2018-05-02T01:30:03.370Z,965.43
2018-05-02T01:31:03.353Z,965.42
2018-05-02T01:32:03.372Z,965.40
2018-05-02T01:33:03.479Z,965.40
2018-05-02T01:34:03.482Z,965.41
2018-05-02T01:35:03.600Z,965.38
2018-05-02T01:36:03.556Z,965.37
2018-05-02T01:37:03.686Z,965.36
2018-05-02T01:38:03.730Z,965.36
2018-05-02T01:39:03.725Z,965.36
2018-05-02T01:40:03.864Z,965.38
2018-05-02T01:41:03.823Z,965.39
2018-05-02T01:42:03.960Z,965.32
2018-05-02T01:43:03.962Z,965.30
2018-05-02T01:44:03.928Z,965.23
2018-05-02T01:45:04.090Z,965.27
2018-05-02T01:46:04.063Z,965.26
2018-05-02T01:47:04.201Z,965.29
2018-05-02T01:48:04.342Z,965.28
2018-05-02T01:49:04.173Z,965.25
2018-05-02T01:50:04.223Z,965.28
2018-05-02T01:51:04.324Z,965.24
2018-05-02T01:52:04.455Z,965.21
2018-05-02T01:53:04.435Z,965.20
2018-05-02T01:54:04.406Z,965.19
2018-05-02T01:55:04.549Z,965.19
2018-05-02T01:56:04.528Z,965.15
2018-05-02T01:57:04.564Z,965.16
2018-05-02T01:58:04.674Z,965.17
2018-05-02T01:59:04.794Z,965.18
2018-05-02T02:00:04.816Z,965.17
2018-05-02T02:01:04.769Z,965.12
2018-05-02T02:02:04.780Z,965.20
2018-05-02T02:03:04.908Z,965.16
2018-05-02T02:04:04.881Z,965.16
2018-05-02T02:05:05.025Z,965.19
2018-05-02T02:06:05.002Z,965.19
2018-05-02T02:07:05.693Z,965.19
2018-05-02T02:08:05.341Z,965.21
2018-05-02T02:09:05.335Z,965.26
2018-05-02T02:10:05.233Z,965.24
2018-05-02T02:11:05.247Z,965.26
2018-05-02T02:12:05.258Z,965.26
2018-05-02T02:13:05.411Z,965.27
2018-05-02T02:14:05.377Z,965.24
2018-05-02T02:15:05.519Z,965.27
2018-05-02T02:16:05.481Z,965.27
2018-05-02T02:17:05.619Z,965.28
2018-05-02T02:18:05.600Z,965.21
2018-05-02T02:19:05.587Z,965.21
2018-05-02T02:20:05.741Z,965.25
2018-05-02T02:21:05.682Z,965.25
2018-05-02T02:22:05.886Z,965.20
2018-05-02T02:23:05.841Z,965.26
2018-05-02T02:24:05.849Z,965.25
2018-05-02T02:25:06.001Z,965.25
2018-05-02T02:26:05.948Z,965.28
2018-05-02T02:27:06.095Z,965.26
2018-05-02T02:28:06.077Z,965.26
2018-05-02T02:29:06.057Z,965.24
2018-05-02T02:30:06.198Z,965.22
2018-05-02T02:31:06.193Z,965.23
2018-05-02T02:32:06.328Z,965.21
2018-05-02T02:33:06.350Z,965.19
2018-05-02T02:34:06.361Z,965.21
2018-05-02T02:35:06.444Z,965.24
2018-05-02T02:36:06.443Z,965.23
2018-05-02T02:37:06.441Z,965.24
2018-05-02T02:38:06.553Z,965.22
2018-05-02T02:39:06.536Z,965.23
2018-05-02T02:40:06.704Z,965.27
2018-05-02T02:41:06.644Z,965.23
2018-05-02T02:42:06.680Z,965.20
2018-05-02T02:43:06.794Z,965.20
2018-05-02T02:44:06.803Z,965.20
2018-05-02T02:45:06.968Z,965.16
2018-05-02T02:46:06.899Z,965.16
2018-05-02T02:47:07.041Z,965.17
2018-05-02T02:48:07.023Z,965.12
2018-05-02T02:49:07.007Z,965.11
2018-05-02T02:50:07.149Z,965.15
2018-05-02T02:51:07.140Z,965.18
2018-05-02T02:52:07.290Z,965.18
2018-05-02T02:53:07.227Z,965.19
2018-05-02T02:54:07.258Z,965.20
2018-05-02T02:55:07.292Z,965.23
2018-05-02T02:56:07.404Z,965.19
2018-05-02T02:57:07.382Z,965.21
2018-05-02T02:58:07.510Z,965.22
2018-05-02T02:59:07.482Z,965.19
2018-05-02T03:00:07.625Z,965.22
2018-05-02T03:01:07.622Z,965.17
2018-05-02T03:02:07.619Z,965.20
2018-05-02T03:03:07.735Z,965.17
2018-05-02T03:04:07.887Z,965.10
2018-05-02T03:05:07.808Z,965.08
2018-05-02T03:06:07.845Z,965.04
2018-05-02T03:07:07.878Z,965.05
2018-05-02T03:08:07.988Z,964.98
2018-05-02T03:09:07.953Z,965.02
2018-05-02T03:10:08.094Z,965.00
2018-05-02T03:11:08.080Z,964.94
2018-05-02T03:12:08.239Z,964.98
2018-05-02T03:13:08.204Z,965.00
2018-05-02T03:14:08.200Z,965.03
2018-05-02T03:15:08.339Z,965.02
2018-05-02T03:16:08.359Z,965.02
2018-05-02T03:17:08.501Z,965.03
2018-05-02T03:18:08.456Z,965.05
2018-05-02T03:19:08.460Z,965.07
2018-05-02T03:20:08.585Z,965.06
2018-05-02T03:21:08.565Z,965.10
2018-05-02T03:22:08.558Z,965.10
2018-05-02T03:23:08.704Z,965.14
2018-05-02T03:24:08.675Z,965.14
2018-05-02T03:25:08.789Z,965.15
2018-05-02T03:26:08.790Z,965.19
2018-05-02T03:27:08.884Z,965.21
2018-05-02T03:28:08.953Z,965.17
2018-05-02T03:29:08.915Z,965.20
2018-05-02T03:30:08.944Z,965.18
2018-05-02T03:31:09.035Z,965.15
2018-05-02T03:32:09.025Z,965.15
2018-05-02T03:33:09.161Z,965.16
2018-05-02T03:34:09.155Z,965.12
2018-05-02T03:35:09.289Z,965.08
2018-05-02T03:36:09.251Z,965.12
2018-05-02T03:37:09.279Z,965.09
2018-05-02T03:38:09.401Z,965.03
2018-05-02T03:39:09.414Z,964.99
2018-05-02T03:40:09.552Z,965.00
2018-05-02T03:41:09.510Z,964.98
2018-05-02T03:42:09.509Z,964.99
2018-05-02T03:43:09.633Z,965.02
2018-05-02T03:44:09.641Z,964.99
2018-05-02T03:45:09.757Z,965.04
2018-05-02T03:46:09.743Z,965.01
2018-05-02T03:47:09.884Z,964.96
2018-05-02T03:48:09.834Z,964.89
2018-05-02T03:49:09.863Z,964.90
2018-05-02T03:50:09.996Z,964.86
2018-05-02T03:51:10.006Z,964.84
2018-05-02T03:52:09.967Z,964.84
2018-05-02T03:53:10.017Z,964.84
2018-05-02T03:54:10.063Z,964.84
2018-05-02T03:55:10.135Z,964.89
2018-05-02T03:56:10.159Z,964.86
2018-05-02T03:57:10.205Z,964.86
2018-05-02T03:58:10.251Z,964.84
2018-05-02T03:59:10.301Z,964.84
2018-05-02T04:00:10.371Z,964.84
2018-05-02T04:01:10.393Z,964.83
2018-05-02T04:02:10.449Z,964.84
2018-05-02T04:03:10.487Z,964.80
2018-05-02T04:04:10.551Z,964.79
2018-05-02T04:05:10.606Z,964.78
2018-05-02T04:06:10.628Z,964.80
2018-05-02T04:07:10.677Z,964.77
2018-05-02T04:08:10.725Z,964.80
2018-05-02T04:09:10.773Z,964.79
2018-05-02T04:10:10.842Z,964.78
2018-05-02T04:11:10.864Z,964.77
2018-05-02T04:12:10.910Z,964.82
2018-05-02T04:13:10.957Z,964.80
2018-05-02T04:14:11.004Z,964.82
2018-05-02T04:15:11.076Z,964.78
2018-05-02T04:16:11.098Z,964.82
2018-05-02T04:17:11.171Z,964.79
2018-05-02T04:18:11.195Z,964.80
2018-05-02T04:19:11.242Z,964.77
2018-05-02T04:20:11.292Z,964.74
2018-05-02T04:21:11.361Z,964.78
2018-05-02T04:22:11.405Z,964.79
2018-05-02T04:23:11.427Z,964.79
2018-05-02T04:24:11.474Z,964.81
2018-05-02T04:25:11.520Z,964.84
2018-05-02T04:26:11.585Z,964.80
2018-05-02T04:27:11.661Z,964.83
2018-05-02T04:28:11.664Z,964.87
2018-05-02T04:29:11.711Z,964.85
2018-05-02T04:30:11.756Z,964.87
2018-05-02T04:31:11.805Z,964.89
2018-05-02T04:32:11.886Z,964.85
2018-05-02T04:33:11.896Z,964.89
2018-05-02T04:34:11.943Z,964.87
2018-05-02T04:35:11.993Z,964.89
2018-05-02T04:36:12.039Z,964.85
2018-05-02T04:37:12.108Z,964.84
2018-05-02T04:38:12.163Z,964.83
2018-05-02T04:39:12.179Z,964.80
2018-05-02T04:40:12.225Z,964.83
2018-05-02T04:41:12.273Z,964.83
2018-05-02T04:42:12.320Z,964.81
2018-05-02T04:43:12.406Z,964.81
2018-05-02T04:44:12.413Z,964.79
2018-05-02T04:45:12.465Z,964.82
2018-05-02T04:46:12.507Z,964.84
2018-05-02T04:47:12.558Z,964.86
2018-05-02T04:48:12.624Z,964.88
2018-05-02T04:49:12.653Z,964.89
2018-05-02T04:50:12.697Z,964.89
2018-05-02T04:51:12.745Z,964.96
2018-05-02T04:52:12.790Z,964.94
2018-05-02T04:53:12.866Z,965.01
2018-05-02T04:54:12.888Z,964.98
2018-05-02T04:55:12.931Z,965.02
2018-05-02T04:56:12.978Z,965.05
2018-05-02T04:57:13.023Z,965.11
2018-05-02T04:58:13.109Z,965.08
2018-05-02T04:59:13.125Z,965.09
2018-05-02T05:00:13.166Z,965.05
2018-05-02T05:01:13.212Z,965.09
2018-05-02T05:02:13.265Z,965.09
2018-05-02T05:03:13.334Z,965.08
2018-05-02T05:04:13.381Z,965.08
2018-05-02T05:05:13.402Z,965.03
2018-05-02T05:06:13.921Z,965.11
2018-05-02T05:07:13.499Z,965.09
2018-05-02T05:08:13.571Z,965.09
2018-05-02T05:09:13.603Z,965.12
2018-05-02T05:10:13.636Z,965.10
2018-05-02T05:11:13.683Z,965.12
2018-05-02T05:12:13.734Z,965.11
2018-05-02T05:13:13.818Z,965.15
2018-05-02T05:14:13.826Z,965.16
2018-05-02T05:15:13.872Z,965.13
2018-05-02T05:16:13.921Z,965.15
2018-05-02T05:17:13.972Z,965.13
2018-05-02T05:18:14.036Z,965.09
2018-05-02T05:19:14.058Z,965.11
2018-05-02T05:20:14.135Z,965.12
2018-05-02T05:21:14.155Z,965.08
2018-05-02T05:22:14.204Z,965.05
2018-05-02T05:23:14.247Z,965.08
2018-05-02T05:24:14.295Z,965.08
2018-05-02T05:25:14.364Z,965.13
2018-05-02T05:26:14.396Z,965.09
2018-05-02T05:27:14.436Z,965.14
2018-05-02T05:28:14.509Z,965.12
2018-05-02T05:29:14.555Z,965.13
2018-05-02T05:30:14.612Z,965.17
2018-05-02T05:31:14.623Z,965.14
2018-05-02T05:32:14.675Z,965.13
2018-05-02T05:33:14.718Z,965.07
2018-05-02T05:34:14.858Z,965.11
2018-05-02T05:35:14.900Z,965.09
2018-05-02T05:36:14.858Z,965.10
2018-05-02T05:37:14.911Z,965.08
2018-05-02T05:38:14.953Z,965.03
2018-05-02T05:39:15.035Z,965.05
2018-05-02T05:40:15.048Z,965.09
2018-05-02T05:41:15.119Z,965.10
2018-05-02T05:42:15.145Z,965.09
2018-05-02T05:43:15.190Z,965.08
2018-05-02T05:44:15.250Z,965.08
2018-05-02T05:45:15.321Z,965.06
2018-05-02T05:46:15.357Z,965.04
2018-05-02T05:47:15.385Z,965.04
2018-05-02T05:48:15.433Z,965.04
2018-05-02T05:49:15.475Z,965.03
2018-05-02T05:50:15.555Z,965.00
2018-05-02T05:51:15.591Z,964.98
2018-05-02T05:52:15.615Z,964.93
2018-05-02T05:53:15.664Z,964.96
2018-05-02T05:54:15.818Z,964.93
2018-05-02T05:55:15.790Z,964.95
2018-05-02T05:56:15.802Z,964.97
2018-05-02T05:57:15.877Z,964.99
2018-05-02T05:58:15.898Z,964.93
2018-05-02T05:59:15.947Z,964.94
2018-05-02T06:00:15.996Z,964.98
2018-05-02T06:01:16.041Z,964.96
2018-05-02T06:02:16.119Z,964.95
2018-05-02T06:03:16.137Z,964.98
2018-05-02T06:04:16.186Z,964.94
2018-05-02T06:05:16.285Z,964.96
2018-05-02T06:06:16.277Z,964.93
2018-05-02T06:07:16.349Z,964.94
2018-05-02T06:08:16.372Z,964.98
2018-05-02T06:09:16.424Z,965.03
2018-05-02T06:10:16.476Z,965.06
2018-05-02T06:11:16.547Z,965.06
2018-05-02T06:12:16.563Z,965.04
2018-05-02T06:13:16.614Z,965.04
2018-05-02T06:14:16.661Z,965.04
2018-05-02T06:15:16.712Z,965.05
2018-05-02T06:16:16.794Z,965.00
2018-05-02T06:17:16.807Z,965.00
2018-05-02T06:18:16.849Z,965.01
2018-05-02T06:19:16.897Z,965.01
2018-05-02T06:20:16.943Z,965.06
2018-05-02T06:21:17.015Z,965.07
2018-05-02T06:22:17.062Z,965.06
2018-05-02T06:23:17.095Z,965.08
2018-05-02T06:24:17.160Z,965.02
2018-05-02T06:25:17.187Z,964.99
2018-05-02T06:26:17.327Z,964.95
2018-05-02T06:27:17.278Z,964.96
2018-05-02T06:28:17.359Z,964.96
2018-05-02T06:29:17.375Z,964.95
2018-05-02T06:30:17.424Z,964.93
2018-05-02T06:31:17.478Z,964.96
2018-05-02T06:32:17.518Z,965.01
2018-05-02T06:33:17.604Z,964.94
2018-05-02T06:34:17.623Z,964.91
2018-05-02T06:35:17.663Z,964.90
2018-05-02T06:36:17.709Z,964.87
2018-05-02T06:37:17.759Z,964.89
2018-05-02T06:38:17.838Z,964.89
2018-05-02T06:39:17.853Z,964.86
2018-05-02T06:40:17.904Z,964.87
2018-05-02T06:41:17.952Z,964.85
2018-05-02T06:42:17.998Z,964.86
2018-05-02T06:43:18.081Z,964.88
2018-05-02T06:44:18.097Z,964.87
2018-05-02T06:45:18.142Z,964.86
2018-05-02T06:46:18.190Z,964.84
2018-05-02T06:47:18.252Z,964.80
2018-05-02T06:48:18.321Z,964.84
2018-05-02T06:49:18.423Z,964.84
2018-05-02T06:50:18.386Z,964.83
2018-05-02T06:51:18.433Z,964.83
2018-05-02T06:52:18.481Z,964.82
2018-05-02T06:53:18.559Z,964.82
2018-05-02T06:54:18.577Z,964.83
2018-05-02T06:55:18.627Z,964.84
2018-05-02T06:56:18.672Z,964.83
2018-05-02T06:57:18.722Z,964.80
2018-05-02T06:58:18.792Z,964.79
2018-05-02T06:59:18.818Z,964.81
2018-05-02T07:00:18.864Z,964.78
2018-05-02T07:01:18.913Z,964.82
2018-05-02T07:02:18.990Z,964.85
2018-05-02T07:03:19.021Z,964.86
2018-05-02T07:04:19.059Z,964.89
2018-05-02T07:05:19.130Z,964.85
2018-05-02T07:06:19.155Z,964.86
2018-05-02T07:07:19.227Z,964.88
2018-05-02T07:08:19.259Z,964.87
2018-05-02T07:09:19.302Z,964.85
2018-05-02T07:10:19.347Z,964.86
2018-05-02T07:11:19.398Z,964.91
2018-05-02T07:12:19.471Z,964.92
2018-05-02T07:13:19.494Z,964.90
2018-05-02T07:14:19.541Z,964.88
2018-05-02T07:15:19.591Z,964.88
2018-05-02T07:16:19.637Z,964.85
2018-05-02T07:17:19.710Z,964.81
2018-05-02T07:18:19.734Z,964.79
2018-05-02T07:19:19.783Z,964.82
2018-05-02T07:20:19.856Z,964.81
2018-05-02T07:21:19.883Z,964.79
2018-05-02T07:22:19.927Z,964.82
2018-05-02T07:23:20.007Z,964.79
2018-05-02T07:24:20.029Z,964.75
2018-05-02T07:25:20.072Z,964.76
2018-05-02T07:26:20.151Z,964.80
2018-05-02T07:27:20.170Z,964.75
2018-05-02T07:28:20.228Z,964.76
2018-05-02T07:29:20.276Z,964.76
2018-05-02T07:30:20.315Z,964.73
2018-05-02T07:31:20.388Z,964.72
2018-05-02T07:32:20.417Z,964.72
2018-05-02T07:33:20.465Z,964.70
2018-05-02T07:34:20.510Z,964.68
2018-05-02T07:35:20.589Z,964.69
2018-05-02T07:36:20.610Z,964.65
2018-05-02T07:37:20.655Z,964.70
2018-05-02T07:38:20.711Z,964.75
2018-05-02T07:39:20.753Z,964.74
2018-05-02T07:40:20.830Z,964.73
2018-05-02T07:41:20.853Z,964.70
2018-05-02T07:42:20.899Z,964.72
2018-05-02T07:43:20.950Z,964.70
2018-05-02T07:44:20.995Z,964.75
2018-05-02T07:45:21.085Z,964.76
2018-05-02T07:46:21.095Z,964.75
2018-05-02T07:47:21.142Z,964.76
2018-05-02T07:48:21.193Z,964.74
2018-05-02T07:49:21.240Z,964.75
2018-05-02T07:50:21.312Z,964.75
2018-05-02T07:51:21.338Z,964.75
2018-05-02T07:52:21.390Z,964.75
2018-05-02T07:53:21.438Z,964.78
2018-05-02T07:54:21.490Z,964.76
2018-05-02T07:55:21.565Z,964.77
2018-05-02T07:56:21.637Z,964.74
2018-05-02T07:57:21.630Z,964.74
2018-05-02T07:58:21.681Z,964.75
2018-05-02T07:59:21.752Z,964.76
2018-05-02T08:00:21.776Z,964.74
2018-05-02T08:01:21.856Z,964.73
2018-05-02T08:02:21.888Z,964.74
2018-05-02T08:03:21.924Z,964.70
2018-05-02T08:04:21.972Z,964.68
2018-05-02T08:05:22.079Z,964.67
2018-05-02T08:06:22.103Z,964.65
2018-05-02T08:07:22.121Z,964.67
2018-05-02T08:08:22.168Z,964.64
2018-05-02T08:09:22.218Z,964.68
2018-05-02T08:10:22.268Z,964.65
2018-05-02T08:11:22.339Z,964.64
2018-05-02T08:12:22.373Z,964.64
2018-05-02T08:13:22.419Z,964.64
2018-05-02T08:14:22.465Z,964.68
2018-05-02T08:15:22.535Z,964.68
2018-05-02T08:16:22.638Z,964.70
2018-05-02T08:17:22.632Z,964.78
2018-05-02T08:18:22.660Z,964.73
2018-05-02T08:19:22.712Z,964.70
2018-05-02T08:20:22.759Z,964.72
2018-05-02T08:21:22.805Z,964.71
2018-05-02T08:22:22.882Z,964.70
2018-05-02T08:23:22.912Z,964.72
2018-05-02T08:24:22.952Z,964.67
2018-05-02T08:25:23.004Z,964.64
2018-05-02T08:26:23.052Z,964.67
2018-05-02T08:27:23.129Z,964.59
2018-05-02T08:28:23.153Z,964.62
2018-05-02T08:29:23.200Z,964.61
2018-05-02T08:30:23.251Z,964.58
2018-05-02T08:31:23.308Z,964.55
2018-05-02T08:32:23.373Z,964.58
2018-05-02T08:33:23.396Z,964.55
2018-05-02T08:34:23.445Z,964.57
2018-05-02T08:35:23.499Z,964.59
2018-05-02T08:36:23.543Z,964.59
2018-05-02T08:37:23.618Z,964.61
2018-05-02T08:38:23.644Z,964.56
2018-05-02T08:39:23.720Z,964.57
2018-05-02T08:40:23.745Z,964.56
2018-05-02T08:41:23.794Z,964.55
2018-05-02T08:42:23.869Z,964.58
2018-05-02T08:43:23.893Z,964.55
2018-05-02T08:44:23.965Z,964.56
2018-05-02T08:45:23.988Z,964.55
2018-05-02T08:46:24.038Z,964.54
2018-05-02T08:47:24.117Z,964.56
2018-05-02T08:48:24.135Z,964.57
2018-05-02T08:49:24.211Z,964.57
2018-05-02T08:50:24.234Z,964.55
2018-05-02T08:51:24.285Z,964.57
2018-05-02T08:52:24.333Z,964.56
2018-05-02T08:53:24.415Z,964.56
2018-05-02T08:54:24.433Z,964.54
2018-05-02T08:55:24.484Z,964.55
2018-05-02T08:56:24.534Z,964.55
2018-05-02T08:57:25.312Z,964.48
2018-05-02T08:58:24.671Z,964.53
2018-05-02T08:59:24.682Z,964.50
2018-05-02T09:00:24.727Z,964.56
2018-05-02T09:01:24.776Z,964.61
2018-05-02T09:02:24.826Z,964.60
2018-05-02T09:03:24.907Z,964.58
2018-05-02T09:04:24.923Z,964.59
2018-05-02T09:05:24.980Z,964.57
2018-05-02T09:06:25.029Z,964.55
2018-05-02T09:07:25.076Z,964.56
2018-05-02T09:08:25.149Z,964.53
2018-05-02T09:09:25.167Z,964.55
2018-05-02T09:10:25.221Z,964.52
2018-05-02T09:11:25.266Z,964.51
2018-05-02T09:12:25.316Z,964.47
2018-05-02T09:13:25.401Z,964.47
2018-05-02T09:14:25.417Z,964.44
2018-05-02T09:15:25.464Z,964.46
2018-05-02T09:16:25.510Z,964.44
2018-05-02T09:17:25.560Z,964.42
2018-05-02T09:18:25.640Z,964.38
2018-05-02T09:19:25.662Z,964.37
2018-05-02T09:20:25.728Z,964.36
2018-05-02T09:21:25.755Z,964.31
2018-05-02T09:22:25.804Z,964.31
2018-05-02T09:23:25.860Z,964.28
2018-05-02T09:24:25.902Z,964.27
2018-05-02T09:25:25.977Z,964.24
2018-05-02T09:26:26.000Z,964.28
2018-05-02T09:27:26.049Z,964.22
2018-05-02T09:28:26.097Z,964.18
2018-05-02T09:29:26.152Z,964.17
2018-05-02T09:30:26.226Z,964.18
2018-05-02T09:31:26.246Z,964.16
2018-05-02T09:32:26.295Z,964.19
2018-05-02T09:33:26.345Z,964.22
2018-05-02T09:34:26.393Z,964.29
2018-05-02T09:35:26.466Z,964.25
2018-05-02T09:36:26.514Z,964.28
2018-05-02T09:37:26.539Z,964.29
2018-05-02T09:38:26.588Z,964.29
2018-05-02T09:39:26.647Z,964.26
2018-05-02T09:40:26.687Z,964.32
2018-05-02T09:41:26.769Z,964.31
2018-05-02T09:42:26.797Z,964.29
2018-05-02T09:43:26.835Z,964.29
2018-05-02T09:44:26.884Z,964.26
2018-05-02T09:45:26.933Z,964.27
2018-05-02T09:46:27.014Z,964.30
2018-05-02T09:47:27.034Z,964.30
2018-05-02T09:48:27.083Z,964.27
2018-05-02T09:49:27.132Z,964.30
2018-05-02T09:50:27.180Z,964.27
2018-05-02T09:51:27.269Z,964.27
2018-05-02T09:52:27.282Z,964.28
2018-05-02T09:53:27.329Z,964.28
2018-05-02T09:54:27.377Z,964.27
2018-05-02T09:55:27.425Z,964.23
2018-05-02T09:56:27.516Z,964.24
2018-05-02T09:57:27.524Z,964.23
2018-05-02T09:58:27.574Z,964.21
2018-05-02T09:59:27.625Z,964.23
2018-05-02T10:00:27.673Z,964.22
2018-05-02T10:01:27.751Z,964.23
2018-05-02T10:02:27.800Z,964.25
2018-05-02T10:03:27.820Z,964.23
2018-05-02T10:04:27.875Z,964.18
2018-05-02T10:05:27.918Z,964.17
2018-05-02T10:06:27.970Z,964.12
2018-05-02T10:07:28.041Z,964.15
2018-05-02T10:08:28.066Z,964.19
2018-05-02T10:09:28.114Z,964.18
2018-05-02T10:10:28.167Z,964.22
2018-05-02T10:11:28.210Z,964.23
2018-05-02T10:12:28.288Z,964.23
2018-05-02T10:13:28.308Z,964.25
2018-05-02T10:14:28.361Z,964.20
2018-05-02T10:15:28.410Z,964.21
2018-05-02T10:16:28.458Z,964.22
2018-05-02T10:17:28.530Z,964.16
2018-05-02T10:18:28.593Z,964.16
2018-05-02T10:19:28.617Z,964.13
2018-05-02T10:20:28.663Z,964.15
2018-05-02T10:21:28.709Z,964.17
2018-05-02T10:22:28.754Z,964.12
2018-05-02T10:23:28.830Z,964.11
2018-05-02T10:24:28.858Z,964.10
2018-05-02T10:25:28.904Z,964.17
2018-05-02T10:26:28.957Z,964.15
2018-05-02T10:27:29.004Z,964.19
2018-05-02T10:28:29.092Z,964.16
2018-05-02T10:29:29.105Z,964.20
2018-05-02T10:30:29.156Z,964.19
2018-05-02T10:31:29.215Z,964.20
2018-05-02T10:32:29.256Z,964.20
2018-05-02T10:33:29.345Z,964.18
2018-05-02T10:34:29.360Z,964.19
2018-05-02T10:35:29.413Z,964.22
2018-05-02T10:36:29.474Z,964.20
2018-05-02T10:37:29.511Z,964.19
2018-05-02T10:38:29.587Z,964.15
2018-05-02T10:39:29.637Z,964.14
2018-05-02T10:40:29.666Z,964.16
2018-05-02T10:41:29.716Z,964.13
2018-05-02T10:42:29.796Z,964.13
2018-05-02T10:43:29.817Z,964.13
2018-05-02T10:44:29.895Z,964.05
2018-05-02T10:45:29.919Z,964.06
2018-05-02T10:46:29.972Z,964.05
2018-05-02T10:47:30.022Z,964.06
2018-05-02T10:48:30.079Z,964.12
2018-05-02T10:49:30.155Z,964.11
2018-05-02T10:50:30.199Z,964.11
2018-05-02T10:51:30.224Z,964.07
2018-05-02T10:52:30.275Z,964.09
2018-05-02T10:53:30.335Z,964.12
2018-05-02T10:54:30.411Z,964.12
2018-05-02T10:55:30.435Z,964.11
2018-05-02T10:56:30.478Z,964.10
2018-05-02T10:57:30.532Z,964.12
2018-05-02T10:58:30.580Z,964.10
2018-05-02T10:59:30.655Z,964.10
2018-05-02T11:00:30.710Z,964.16
2018-05-02T11:01:30.735Z,964.13
2018-05-02T11:02:30.783Z,964.20
2018-05-02T11:03:30.837Z,964.20
2018-05-02T11:04:30.885Z,964.23
2018-05-02T11:05:30.963Z,964.28
2018-05-02T11:06:30.990Z,964.25
2018-05-02T11:07:31.040Z,964.26
2018-05-02T11:08:31.091Z,964.23
2018-05-02T11:09:31.141Z,964.26
2018-05-02T11:10:31.217Z,964.28
2018-05-02T11:11:31.268Z,964.27
2018-05-02T11:12:31.290Z,964.22
2018-05-02T11:13:31.342Z,964.23
2018-05-02T11:14:31.400Z,964.24
2018-05-02T11:15:31.473Z,964.22
2018-05-02T11:16:31.493Z,964.16
2018-05-02T11:17:31.570Z,964.10
2018-05-02T11:18:31.595Z,964.09
2018-05-02T11:19:31.648Z,964.12
2018-05-02T11:20:31.705Z,964.16
2018-05-02T11:21:31.772Z,964.17
2018-05-02T11:22:31.800Z,964.21
2018-05-02T11:23:31.848Z,964.16
2018-05-02T11:24:31.909Z,964.19
2018-05-02T11:25:31.951Z,964.15
2018-05-02T11:26:32.026Z,964.15
2018-05-02T11:27:32.055Z,964.11
2018-05-02T11:28:32.103Z,964.10
2018-05-02T11:29:32.153Z,964.07
2018-05-02T11:30:32.207Z,964.08
2018-05-02T11:31:32.281Z,964.07
2018-05-02T11:32:32.303Z,964.09
2018-05-02T11:33:32.358Z,964.13
2018-05-02T11:34:32.410Z,964.09
2018-05-02T11:35:32.460Z,964.08
2018-05-02T11:36:32.539Z,964.07
2018-05-02T11:37:32.560Z,964.06
2018-05-02T11:38:32.611Z,963.98
2018-05-02T11:39:32.663Z,964.00
2018-05-02T11:40:32.717Z,963.97
2018-05-02T11:41:32.789Z,963.97
2018-05-02T11:42:32.817Z,964.00
2018-05-02T11:43:32.867Z,963.97
2018-05-02T11:44:32.960Z,963.94
2018-05-02T11:45:32.970Z,963.98
2018-05-02T11:46:33.021Z,963.97
2018-05-02T11:47:33.071Z,963.91
2018-05-02T11:48:33.120Z,963.96
2018-05-02T11:49:33.202Z,963.95
2018-05-02T11:50:33.230Z,963.96
2018-05-02T11:51:33.279Z,964.00
2018-05-02T11:52:33.327Z,963.96
2018-05-02T11:53:33.372Z,963.97
2018-05-02T11:54:33.457Z,963.95
2018-05-02T11:55:33.483Z,963.97
2018-05-02T11:56:33.523Z,963.98
2018-05-02T11:57:33.576Z,963.98
2018-05-02T11:58:33.627Z,963.95
2018-05-02T11:59:33.701Z,963.91
2018-05-02T12:00:33.729Z,963.93
2018-05-02T12:01:33.776Z,963.95
2018-05-02T12:02:33.831Z,963.94
2018-05-02T12:03:33.976Z,963.92
2018-05-02T12:04:33.933Z,963.93
2018-05-02T12:05:34.008Z,963.91
2018-05-02T12:06:34.033Z,963.88
2018-05-02T12:07:34.082Z,963.90
2018-05-02T12:08:34.153Z,963.90
2018-05-02T12:09:34.185Z,963.84
2018-05-02T12:10:34.289Z,963.81
2018-05-02T12:11:34.281Z,963.79
2018-05-02T12:12:34.334Z,963.79
2018-05-02T12:13:34.387Z,963.77
2018-05-02T12:14:34.459Z,963.76
2018-05-02T12:15:34.515Z,963.73
2018-05-02T12:16:34.537Z,963.73
2018-05-02T12:17:34.590Z,963.72
2018-05-02T12:18:34.646Z,963.70
2018-05-02T12:19:34.691Z,963.70
2018-05-02T12:20:34.763Z,963.68
2018-05-02T12:21:34.832Z,963.69
2018-05-02T12:22:34.842Z,963.71
2018-05-02T12:23:34.892Z,963.67
2018-05-02T12:24:34.941Z,963.71
2018-05-02T12:25:34.996Z,963.70
2018-05-02T12:26:35.080Z,963.73
2018-05-02T12:27:35.095Z,963.76
2018-05-02T12:28:35.145Z,963.83
2018-05-02T12:29:35.196Z,963.77